createdAt,value
2018-09-20T00:00:24.089Z,8.48
2018-09-20T00:02:52.321Z,8.53
2018-09-20T00:05:20.544Z,8.50
2018-09-20T00:07:48.756Z,8.75
2018-09-20T00:10:16.984Z,7.22
2018-09-20T00:12:45.272Z,8.03
2018-09-20T00:15:13.533Z,6.62
2018-09-20T00:17:41.780Z,8.40
2018-09-20T00:20:09.999Z,7.85
2018-09-20T00:22:38.267Z,7.20
2018-09-20T00:25:06.495Z,8.10
2018-09-20T00:27:34.722Z,6.28
2018-09-20T00:30:02.980Z,7.37
2018-09-20T00:32:31.212Z,6.85
2018-09-20T00:34:59.439Z,7.00
2018-09-20T00:37:27.688Z,7.45
2018-09-20T00:39:55.931Z,7.22
2018-09-20T00:42:24.338Z,6.54
2018-09-20T00:44:52.583Z,6.90
2018-09-20T00:47:20.791Z,7.22
2018-09-20T00:49:49.024Z,6.47
2018-09-20T00:52:17.391Z,6.33
2018-09-20T00:54:45.668Z,6.22
2018-09-20T00:57:13.935Z,5.80
2018-09-20T00:59:42.203Z,5.80
2018-09-20T01:02:10.469Z,5.67
2018-09-20T01:04:38.756Z,5.45
2018-09-20T01:07:06.969Z,6.03
2018-09-20T01:09:35.187Z,5.62
2018-09-20T01:12:03.383Z,5.20
2018-09-20T01:14:31.628Z,5.97
2018-09-20T01:16:59.814Z,6.12
2018-09-20T01:19:28.051Z,5.20
2018-09-20T01:21:56.635Z,5.97
2018-09-20T01:24:25.114Z,5.60
2018-09-20T01:26:53.340Z,4.90
2018-09-20T01:29:21.816Z,5.28
2018-09-20T01:31:50.147Z,5.25
2018-09-20T01:34:18.412Z,6.25
2018-09-20T01:36:46.635Z,5.25
2018-09-20T01:39:15.941Z,6.00
2018-09-20T01:41:44.249Z,5.37
2018-09-20T01:44:13.263Z,6.30
2018-09-20T01:46:41.724Z,6.33
2018-09-20T01:49:10.368Z,5.58
2018-09-20T01:51:38.792Z,5.87
2018-09-20T01:54:07.227Z,6.30
2018-09-20T01:56:35.471Z,6.17
2018-09-20T01:59:03.716Z,6.00
2018-09-20T02:01:31.948Z,6.20
2018-09-20T02:04:00.152Z,6.58
2018-09-20T02:06:28.384Z,6.30
2018-09-20T02:08:57.483Z,6.12
2018-09-20T02:11:25.695Z,6.42
2018-09-20T02:13:53.948Z,6.40
2018-09-20T02:16:22.179Z,6.00
2018-09-20T02:18:50.403Z,6.80
2018-09-20T02:21:18.623Z,5.97
2018-09-20T02:23:46.823Z,6.03
2018-09-20T02:26:15.099Z,6.53
2018-09-20T02:28:43.357Z,6.28
2018-09-20T02:31:11.680Z,7.12
2018-09-20T02:33:39.939Z,5.35
2018-09-20T02:36:08.368Z,6.45
2018-09-20T02:38:36.609Z,6.58
2018-09-20T02:41:04.832Z,6.67
2018-09-20T02:43:33.072Z,5.97
2018-09-20T02:46:01.308Z,6.58
2018-09-20T02:48:29.715Z,5.80
2018-09-20T02:50:57.978Z,5.95
2018-09-20T02:53:26.281Z,6.85
2018-09-20T02:55:54.526Z,6.17
2018-09-20T02:58:22.773Z,5.65
2018-09-20T03:00:51.044Z,6.33
2018-09-20T03:03:19.264Z,6.30
2018-09-20T03:05:47.485Z,5.55
2018-09-20T03:08:15.679Z,5.12
2018-09-20T03:10:43.954Z,5.95
2018-09-20T03:13:12.441Z,5.83
2018-09-20T03:15:40.702Z,5.90
2018-09-20T03:18:08.947Z,5.97
2018-09-20T03:20:37.143Z,6.30
2018-09-20T03:23:05.348Z,5.92
2018-09-20T03:25:33.552Z,5.75
2018-09-20T03:28:01.809Z,5.43
2018-09-20T03:30:30.080Z,5.12
2018-09-20T03:32:58.293Z,5.97
2018-09-20T03:35:26.524Z,5.65
2018-09-20T03:37:54.801Z,5.87
2018-09-20T03:40:23.043Z,5.55
2018-09-20T03:42:51.296Z,6.20
2018-09-20T03:45:19.522Z,6.10
2018-09-20T03:47:47.788Z,6.72
2018-09-20T03:50:16.109Z,6.22
2018-09-20T03:52:44.404Z,6.42
2018-09-20T03:55:12.639Z,6.53
2018-09-20T03:57:40.924Z,6.30
2018-09-20T04:00:09.292Z,6.30
2018-09-20T04:02:37.524Z,6.10
2018-09-20T04:05:05.744Z,6.53
2018-09-20T04:07:33.996Z,6.47
2018-09-20T04:10:02.223Z,7.60
2018-09-20T04:12:30.472Z,5.90
2018-09-20T04:14:58.672Z,6.83
2018-09-20T04:17:27.843Z,6.12
2018-09-20T04:19:56.069Z,6.37
2018-09-20T04:22:24.311Z,5.85
2018-09-20T04:24:52.563Z,6.55
2018-09-20T04:27:20.824Z,6.10
2018-09-20T04:29:49.036Z,6.37
2018-09-20T04:32:17.311Z,6.20
2018-09-20T04:34:45.595Z,6.25
2018-09-20T04:37:14.503Z,6.47
2018-09-20T04:39:42.767Z,6.70
2018-09-20T04:42:11.287Z,6.72
2018-09-20T04:44:39.539Z,6.35
2018-09-20T04:47:07.799Z,6.62
2018-09-20T04:49:36.097Z,6.90
2018-09-20T04:52:04.317Z,6.50
2018-09-20T04:54:32.563Z,7.47
2018-09-20T04:57:01.447Z,6.30
2018-09-20T04:59:29.669Z,7.35
2018-09-20T05:01:57.924Z,6.00
2018-09-20T05:04:26.136Z,6.08
2018-09-20T05:06:54.356Z,6.20
2018-09-20T05:09:22.894Z,6.42
2018-09-20T05:11:51.112Z,6.57
2018-09-20T05:14:19.375Z,6.75
2018-09-20T05:16:47.604Z,6.70
2018-09-20T05:19:15.853Z,6.42
2018-09-20T05:21:44.103Z,6.37
2018-09-20T05:24:12.375Z,6.60
2018-09-20T05:26:40.652Z,6.70
2018-09-20T05:29:08.927Z,6.72
2018-09-20T05:31:37.172Z,6.47
2018-09-20T05:34:05.395Z,6.55
2018-09-20T05:36:33.616Z,5.90
2018-09-20T05:39:01.888Z,6.47
2018-09-20T05:41:30.832Z,5.87
2018-09-20T05:43:59.089Z,6.90
2018-09-20T05:46:27.315Z,7.15
2018-09-20T05:48:55.544Z,6.30
2018-09-20T05:51:23.776Z,6.80
2018-09-20T05:53:52.017Z,7.08
2018-09-20T05:56:20.224Z,6.58
2018-09-20T05:58:48.759Z,6.05
2018-09-20T06:01:17.033Z,6.33
2018-09-20T06:03:45.298Z,6.10
2018-09-20T06:06:13.707Z,6.45
2018-09-20T06:08:41.951Z,6.30
2018-09-20T06:11:10.278Z,7.47
2018-09-20T06:13:39.526Z,6.78
2018-09-20T06:16:07.744Z,6.87
2018-09-20T06:18:35.967Z,7.08
2018-09-20T06:21:05.008Z,6.72
2018-09-20T06:23:33.352Z,6.62
2018-09-20T06:26:01.679Z,6.80
2018-09-20T06:28:29.868Z,5.67
2018-09-20T06:30:58.124Z,5.70
2018-09-20T06:33:26.352Z,5.90
2018-09-20T06:35:54.636Z,5.93
2018-09-20T06:38:22.891Z,5.60
2018-09-20T06:40:51.154Z,6.33
2018-09-20T06:43:19.367Z,5.97
2018-09-20T06:45:47.605Z,5.80
2018-09-20T06:48:15.848Z,6.20
2018-09-20T06:50:44.116Z,6.15
2018-09-20T06:53:12.637Z,5.10
2018-09-20T06:55:40.920Z,5.15
2018-09-20T06:58:09.160Z,5.83
2018-09-20T07:00:37.382Z,5.83
2018-09-20T07:03:05.679Z,5.72
2018-09-20T07:05:33.927Z,5.65
2018-09-20T07:08:02.157Z,5.67
2018-09-20T07:10:30.428Z,5.05
2018-09-20T07:12:58.681Z,5.72
2018-09-20T07:15:26.935Z,5.72
2018-09-20T07:17:55.244Z,5.72
2018-09-20T07:20:23.471Z,5.72
2018-09-20T07:22:51.731Z,5.33
2018-09-20T07:25:20.427Z,6.17
2018-09-20T07:27:48.631Z,5.65
2018-09-20T07:30:16.827Z,5.35
2018-09-20T07:32:45.107Z,5.35
2018-09-20T07:35:13.307Z,5.70
2018-09-20T07:37:41.705Z,5.40
2018-09-20T07:40:09.983Z,5.78
2018-09-20T07:42:38.200Z,5.95
2018-09-20T07:45:06.441Z,5.57
2018-09-20T07:47:34.648Z,5.58
2018-09-20T07:50:02.876Z,5.20
2018-09-20T07:52:31.096Z,5.42
2018-09-20T07:54:59.354Z,5.12
2018-09-20T07:57:30.044Z,4.90
2018-09-20T07:59:59.343Z,5.30
2018-09-20T08:02:27.552Z,5.07
2018-09-20T08:04:55.788Z,4.92
2018-09-20T08:07:24.045Z,4.70
2018-09-20T08:09:52.305Z,4.42
2018-09-20T08:12:20.519Z,5.20
2018-09-20T08:14:48.740Z,4.67
2018-09-20T08:17:16.993Z,5.17
2018-09-20T08:19:45.504Z,4.65
2018-09-20T08:22:13.972Z,4.78
2018-09-20T08:24:42.342Z,4.65
2018-09-20T08:27:10.585Z,4.75
2018-09-20T08:29:39.492Z,4.85
2018-09-20T08:32:07.855Z,4.33
2018-09-20T08:34:36.180Z,4.58
2018-09-20T08:37:04.377Z,4.65
2018-09-20T08:39:32.664Z,4.75
2018-09-20T08:42:00.937Z,3.87
2018-09-20T08:44:29.208Z,5.00
2018-09-20T08:46:57.436Z,3.95
2018-09-20T08:49:25.692Z,4.28
2018-09-20T08:51:53.928Z,4.28
2018-09-20T08:54:22.185Z,3.70
2018-09-20T08:56:50.422Z,4.37
2018-09-20T08:59:18.689Z,4.03
2018-09-20T09:01:46.932Z,3.77
2018-09-20T09:04:16.159Z,4.08
2018-09-20T09:06:44.405Z,3.95
2018-09-20T09:09:13.311Z,4.03
2018-09-20T09:11:41.524Z,3.80
2018-09-20T09:14:10.140Z,3.55
2018-09-20T09:16:38.395Z,4.20
2018-09-20T09:19:06.644Z,3.60
2018-09-20T09:21:35.680Z,3.98
2018-09-20T09:24:04.417Z,4.10
2018-09-20T09:26:32.620Z,4.70
2018-09-20T09:29:00.851Z,4.47
2018-09-20T09:31:29.092Z,4.65
2018-09-20T09:33:57.361Z,4.90
2018-09-20T09:36:25.826Z,4.60
2018-09-20T09:38:54.124Z,4.20
2018-09-20T09:41:22.368Z,4.65
2018-09-20T09:43:50.701Z,4.55
2018-09-20T09:46:19.087Z,4.17
2018-09-20T09:48:47.336Z,4.62
2018-09-20T09:51:15.600Z,4.53
2018-09-20T09:53:43.828Z,4.17
2018-09-20T09:56:12.071Z,4.40
2018-09-20T09:58:40.300Z,4.92
2018-09-20T10:01:08.536Z,4.60
2018-09-20T10:03:36.751Z,4.25
2018-09-20T10:06:04.992Z,4.60
2018-09-20T10:08:33.202Z,3.90
2018-09-20T10:11:01.474Z,4.20
2018-09-20T10:13:29.815Z,4.35
2018-09-20T10:15:58.035Z,4.65
2018-09-20T10:18:26.290Z,3.50
2018-09-20T10:20:54.945Z,3.98
2018-09-20T10:23:23.209Z,3.83
2018-09-20T10:25:51.484Z,3.85
2018-09-20T10:28:19.688Z,4.20
2018-09-20T10:30:47.933Z,3.90
2018-09-20T10:33:16.173Z,4.00
2018-09-20T10:35:44.489Z,3.95
2018-09-20T10:38:12.719Z,3.83
2018-09-20T10:40:40.963Z,4.33
2018-09-20T10:43:09.195Z,4.47
2018-09-20T10:45:37.417Z,4.25
2018-09-20T10:48:05.648Z,4.20
2018-09-20T10:50:33.921Z,4.37
2018-09-20T10:53:02.188Z,4.17
2018-09-20T10:55:30.495Z,5.12
2018-09-20T10:57:58.743Z,4.40
2018-09-20T11:00:27.018Z,4.42
2018-09-20T11:02:55.284Z,4.37
2018-09-20T11:05:23.532Z,3.87
2018-09-20T11:07:51.777Z,5.05
2018-09-20T11:10:20.016Z,4.20
2018-09-20T11:12:48.223Z,4.53
2018-09-20T11:15:16.463Z,4.35
2018-09-20T11:17:44.692Z,3.85
2018-09-20T11:20:12.928Z,4.28
2018-09-20T11:22:41.190Z,4.35
2018-09-20T11:25:09.440Z,4.05
2018-09-20T11:27:37.688Z,4.22
2018-09-20T11:30:06.257Z,4.75
2018-09-20T11:32:34.524Z,4.03
2018-09-20T11:35:02.781Z,3.95
2018-09-20T11:37:31.049Z,4.30
2018-09-20T11:39:59.326Z,4.33
2018-09-20T11:42:27.711Z,4.25
2018-09-20T11:44:55.968Z,3.95
2018-09-20T11:47:24.228Z,4.17
2018-09-20T11:49:52.494Z,3.80
2018-09-20T11:52:20.753Z,4.08
2018-09-20T11:54:49.079Z,4.40
2018-09-20T11:57:17.284Z,4.40
2018-09-20T11:59:45.501Z,4.00
2018-09-20T12:02:13.760Z,3.83
2018-09-20T12:04:41.988Z,4.20
2018-09-20T12:07:10.225Z,4.53
2018-09-20T12:09:38.481Z,4.62
2018-09-20T12:12:06.934Z,3.90
2018-09-20T12:14:35.202Z,4.12
2018-09-20T12:17:03.413Z,4.08
2018-09-20T12:19:31.636Z,4.10
2018-09-20T12:21:59.919Z,4.70
2018-09-20T12:24:28.192Z,5.97
2018-09-20T12:26:56.435Z,4.15
2018-09-20T12:29:24.689Z,4.12
2018-09-20T12:31:52.937Z,4.13
2018-09-20T12:34:21.197Z,3.77
2018-09-20T12:36:49.849Z,4.03
2018-09-20T12:39:18.104Z,3.65
2018-09-20T12:41:46.320Z,4.72
2018-09-20T12:44:14.604Z,4.70
2018-09-20T12:46:42.926Z,5.22
2018-09-20T12:49:11.183Z,4.35
2018-09-20T12:51:39.404Z,3.90
2018-09-20T12:54:07.661Z,4.90
2018-09-20T12:56:35.917Z,3.80
2018-09-20T12:59:04.161Z,3.90
2018-09-20T13:01:32.439Z,4.28
2018-09-20T13:04:00.700Z,3.65
2018-09-20T13:06:28.899Z,4.30
2018-09-20T13:08:57.183Z,4.40
2018-09-20T13:11:25.445Z,4.00
2018-09-20T13:13:53.692Z,4.40
2018-09-20T13:16:21.951Z,4.90
2018-09-20T13:18:50.217Z,4.20
2018-09-20T13:21:18.579Z,4.05
2018-09-20T13:23:46.833Z,3.95
2018-09-20T13:26:15.052Z,3.70
2018-09-20T13:28:43.325Z,3.85
2018-09-20T13:31:11.594Z,3.98
2018-09-20T13:33:39.828Z,4.00
2018-09-20T13:36:08.071Z,3.90
2018-09-20T13:38:36.327Z,3.72
2018-09-20T13:41:04.549Z,4.40
2018-09-20T13:43:32.775Z,4.67
2018-09-20T13:46:00.988Z,4.03
2018-09-20T13:48:29.251Z,4.62
2018-09-20T13:50:57.498Z,4.37
2018-09-20T13:53:25.720Z,3.98
2018-09-20T13:55:53.940Z,4.37
2018-09-20T13:58:22.164Z,4.12
2018-09-20T14:00:50.415Z,4.70
2018-09-20T14:03:18.691Z,4.42
2018-09-20T14:05:47.099Z,4.35
2018-09-20T14:08:15.295Z,3.90
2018-09-20T14:10:43.543Z,4.80
2018-09-20T14:13:11.777Z,4.25
2018-09-20T14:15:40.029Z,3.80
2018-09-20T14:18:08.382Z,4.10
2018-09-20T14:20:36.732Z,3.90
2018-09-20T14:23:04.932Z,4.10
2018-09-20T14:25:33.128Z,3.75
2018-09-20T14:28:01.375Z,4.05
2018-09-20T14:30:29.624Z,4.28
2018-09-20T14:32:57.862Z,4.35
2018-09-20T14:35:26.105Z,4.00
2018-09-20T14:37:54.324Z,4.50
2018-09-20T14:40:22.580Z,4.35
2018-09-20T14:42:50.797Z,3.33
2018-09-20T14:45:19.065Z,3.55
2018-09-20T14:47:47.357Z,3.65
2018-09-20T14:50:15.592Z,4.05
2018-09-20T14:52:43.888Z,3.95
2018-09-20T14:55:12.126Z,3.47
2018-09-20T14:57:40.381Z,3.75
2018-09-20T15:00:08.651Z,3.85
2018-09-20T15:02:36.893Z,3.62
2018-09-20T15:05:05.176Z,4.08
2018-09-20T15:07:33.379Z,3.60
2018-09-20T15:10:01.621Z,3.40
2018-09-20T15:12:29.884Z,3.95
2018-09-20T15:14:58.103Z,3.80
2018-09-20T15:17:26.371Z,3.58
2018-09-20T15:19:54.654Z,3.35
2018-09-20T15:22:22.952Z,4.22
2018-09-20T15:24:51.180Z,3.72
2018-09-20T15:27:19.480Z,3.30
2018-09-20T15:29:47.777Z,3.98
2018-09-20T15:32:16.025Z,3.72
2018-09-20T15:34:44.274Z,3.37
2018-09-20T15:37:12.504Z,3.30
2018-09-20T15:39:40.720Z,4.03
2018-09-20T15:42:09.013Z,9.15
2018-09-20T15:44:37.247Z,3.50
2018-09-20T15:47:05.480Z,3.87
2018-09-20T15:49:33.808Z,3.72
2018-09-20T15:52:02.047Z,3.12
2018-09-20T15:54:30.312Z,3.77
2018-09-20T15:56:58.645Z,3.70
2018-09-20T15:59:26.868Z,3.30
2018-09-20T16:01:55.087Z,2.83
2018-09-20T16:04:23.297Z,2.85
2018-09-20T16:06:51.598Z,3.33
2018-09-20T16:09:19.928Z,3.37
2018-09-20T16:11:48.206Z,3.50
2018-09-20T16:14:16.492Z,3.30
2018-09-20T16:16:44.751Z,2.85
2018-09-20T16:19:12.959Z,2.80
2018-09-20T16:21:41.228Z,3.52
2018-09-20T16:24:09.492Z,3.27
2018-09-20T16:26:37.740Z,2.90
2018-09-20T16:29:23.025Z,2.77
2018-09-20T16:34:09.319Z,3.50
2018-09-20T16:37:19.101Z,3.22
2018-09-20T16:39:49.199Z,3.20
2018-09-20T16:42:20.925Z,3.10
2018-09-20T16:44:49.236Z,3.27
2018-09-20T16:47:17.555Z,3.42
2018-09-20T16:49:45.807Z,3.25
2018-09-20T16:52:14.069Z,2.98
2018-09-20T16:54:42.303Z,2.80
2018-09-20T16:57:10.565Z,3.22
2018-09-20T16:59:39.148Z,3.27
2018-09-20T17:02:07.414Z,2.75
2018-09-20T17:04:35.643Z,2.60
2018-09-20T17:07:03.961Z,3.08
2018-09-20T17:09:32.177Z,3.22
2018-09-20T17:12:00.436Z,3.52
2018-09-20T17:14:28.829Z,3.60
2018-09-20T17:16:57.117Z,3.33
2018-09-20T17:19:25.385Z,2.70
2018-09-20T17:21:53.640Z,3.12
2018-09-20T17:24:21.941Z,3.15
2018-09-20T17:26:50.219Z,3.40
2018-09-20T17:29:18.643Z,2.70
2018-09-20T17:31:46.968Z,3.13
2018-09-20T17:34:15.349Z,3.33
2018-09-20T17:36:44.632Z,3.95
2018-09-20T17:39:13.969Z,2.85
2018-09-20T17:41:44.323Z,3.37
2018-09-20T17:44:12.607Z,3.67
2018-09-20T17:46:40.893Z,3.15
2018-09-20T17:49:09.485Z,3.40
2018-09-20T17:51:38.276Z,3.80
2018-09-20T17:54:07.085Z,3.30
2018-09-20T17:56:36.024Z,3.02
2018-09-20T17:59:04.423Z,3.17
2018-09-20T18:01:32.829Z,3.67
2018-09-20T18:04:01.107Z,3.25
2018-09-20T18:06:29.414Z,3.50
2018-09-20T18:08:57.724Z,4.35
2018-09-20T18:11:25.995Z,4.47
2018-09-20T18:13:54.328Z,4.12
2018-09-20T18:16:23.631Z,5.17
2018-09-20T18:18:52.071Z,18.25
2018-09-20T18:21:22.296Z,22.10
2018-09-20T18:23:51.482Z,29.60
2018-09-20T18:26:21.181Z,32.65
2018-09-20T18:28:50.315Z,23.97
2018-09-20T18:31:18.640Z,23.52
2018-09-20T18:33:47.075Z,23.25
2018-09-20T18:36:15.806Z,19.48
2018-09-20T18:38:44.112Z,15.35
2018-09-20T18:41:13.330Z,12.58
2018-09-20T18:43:41.622Z,12.88
2018-09-20T18:46:09.936Z,12.07
2018-09-20T18:48:38.401Z,10.60
2018-09-20T18:51:06.745Z,12.13
2018-09-20T18:53:35.136Z,12.50
2018-09-20T18:56:04.610Z,10.20
2018-09-20T18:58:33.977Z,10.32
2018-09-20T19:01:02.370Z,9.70
2018-09-20T19:03:31.802Z,9.20
2018-09-20T19:06:01.101Z,9.73
2018-09-20T19:08:33.672Z,7.90
2018-09-20T19:11:02.679Z,7.92
2018-09-20T19:13:31.050Z,7.35
2018-09-20T19:15:59.522Z,8.38
2018-09-20T19:18:28.232Z,7.35
2018-09-20T19:20:57.284Z,9.05
2018-09-20T19:23:25.610Z,8.08
2018-09-20T19:25:54.616Z,7.47
2018-09-20T19:28:23.441Z,6.85
2018-09-20T19:30:51.836Z,7.53
2018-09-20T19:33:20.797Z,6.62
2018-09-20T19:35:49.366Z,6.58
2018-09-20T19:38:17.794Z,6.20
2018-09-20T19:40:47.180Z,5.28
2018-09-20T19:43:15.585Z,5.37
2018-09-20T19:45:44.211Z,5.42
2018-09-20T19:48:12.540Z,4.87
2018-09-20T19:50:41.183Z,4.87
2018-09-20T19:53:09.669Z,4.53
2018-09-20T19:55:38.000Z,5.43
2018-09-20T19:58:06.444Z,4.47
2018-09-20T20:00:34.773Z,5.53
2018-09-20T20:03:03.103Z,6.87
2018-09-20T20:05:31.438Z,6.45
2018-09-20T20:08:00.593Z,6.62
2018-09-20T20:10:29.211Z,5.90
2018-09-20T20:12:57.896Z,4.73
2018-09-20T20:15:26.209Z,5.35
2018-09-20T20:17:55.003Z,5.42
2018-09-20T20:20:23.576Z,4.27
2018-09-20T20:22:51.896Z,4.62
2018-09-20T20:25:20.259Z,4.30
2018-09-20T20:27:48.569Z,4.50
2018-09-20T20:30:16.871Z,4.60
2018-09-20T20:32:45.155Z,4.12
2018-09-20T20:35:13.499Z,4.47
2018-09-20T20:37:41.797Z,4.28
2018-09-20T20:40:10.090Z,4.17
2018-09-20T20:42:38.374Z,3.77
2018-09-20T20:45:06.724Z,4.50
2018-09-20T20:47:35.010Z,4.70
2018-09-20T20:50:03.275Z,4.33
2018-09-20T20:52:31.913Z,4.70
2018-09-20T20:55:00.239Z,3.90
2018-09-20T20:57:28.508Z,4.50
2018-09-20T20:59:57.054Z,3.92
2018-09-20T21:02:25.321Z,3.72
2018-09-20T21:04:53.607Z,5.03
2018-09-20T21:07:21.933Z,5.04
2018-09-20T21:09:50.217Z,4.50
2018-09-20T21:12:19.295Z,3.98
2018-09-20T21:14:47.529Z,4.17
2018-09-20T21:17:15.808Z,4.47
2018-09-20T21:20:14.142Z,4.75
2018-09-20T21:22:42.435Z,4.03
2018-09-20T21:25:10.737Z,4.45
2018-09-20T21:27:38.976Z,4.20
2018-09-20T21:30:07.259Z,4.50
2018-09-20T21:32:35.513Z,4.80
2018-09-20T21:35:03.748Z,4.80
2018-09-20T21:37:31.981Z,4.53
2018-09-20T21:40:00.228Z,4.35
2018-09-20T21:42:28.472Z,4.67
2018-09-20T21:44:56.714Z,4.20
2018-09-20T21:47:24.996Z,4.92
2018-09-20T21:49:53.249Z,3.92
2018-09-20T21:52:21.500Z,5.03
2018-09-20T21:54:49.781Z,4.90
2018-09-20T21:57:18.025Z,4.45
2018-09-20T21:59:46.478Z,5.00
2018-09-20T22:02:18.957Z,4.50
2018-09-20T22:04:47.195Z,4.83
2018-09-20T22:07:15.449Z,4.87
2018-09-20T22:09:43.684Z,5.35
2018-09-20T22:12:11.944Z,5.00
2018-09-20T22:14:40.184Z,5.10
2018-09-20T22:17:08.422Z,5.75
2018-09-20T22:19:36.671Z,5.60
2018-09-20T22:22:04.931Z,5.60
2018-09-20T22:24:33.140Z,5.35
2018-09-20T22:27:01.405Z,5.35
2018-09-20T22:29:29.643Z,4.75
2018-09-20T22:31:57.860Z,4.70
2018-09-20T22:34:26.114Z,4.83
2018-09-20T22:36:54.328Z,4.00
2018-09-20T22:39:22.541Z,4.62
2018-09-20T22:41:50.832Z,4.30
2018-09-20T22:44:19.085Z,3.95
2018-09-20T22:46:47.359Z,4.22
2018-09-20T22:49:15.597Z,4.97
2018-09-20T22:51:43.898Z,4.65
2018-09-20T22:54:12.126Z,4.22
2018-09-20T22:56:40.376Z,4.40
2018-09-20T22:59:08.627Z,4.30
2018-09-20T23:01:36.832Z,4.53
2018-09-20T23:04:05.117Z,4.03
2018-09-20T23:06:33.377Z,4.83
2018-09-20T23:09:01.641Z,4.40
2018-09-20T23:11:29.901Z,4.00
2018-09-20T23:13:58.129Z,4.35
2018-09-20T23:16:26.420Z,4.05
2018-09-20T23:18:54.630Z,4.12
2018-09-20T23:21:22.955Z,4.26
2018-09-20T23:23:51.159Z,4.35
2018-09-20T23:26:19.424Z,4.58
2018-09-20T23:28:47.846Z,4.28
2018-09-20T23:31:16.123Z,4.70
2018-09-20T23:33:44.337Z,4.87
2018-09-20T23:36:12.567Z,4.65
2018-09-20T23:38:40.786Z,4.50
2018-09-20T23:41:09.036Z,4.53
2018-09-20T23:43:37.247Z,4.33
2018-09-20T23:46:06.414Z,3.96
2018-09-20T23:48:34.622Z,4.22
2018-09-20T23:51:02.880Z,4.92
2018-09-20T23:53:31.088Z,4.55
2018-09-20T23:55:59.348Z,4.47
2018-09-20T23:58:27.608Z,4.83
